Time;durP1;ratioP1;P1;durP2;ratioP2;P2;SDS_P1;SDS_P2;PMS_P1;PMS_P2;Temp;Humidity;BMP_temperature;BMP_pressure;BME280_temperature;BME280_humidity;BME280_pressure;Samples;Min_cycle;Max_cycle;Signal;HPM_P1;HPM_P2
2023/04/08 00:00:09;;;;;;;10.30;8.23;;;;;;;;;;4996338;28;20050;-79
2023/04/08 00:02:36;;;;;;;9.50;7.60;;;;;;;;;;5029151;28;20137;-79
2023/04/08 00:05:04;;;;;;;11.10;8.50;;;;;;;;;;5013449;28;20053;-79
2023/04/08 00:07:30;;;;;;;12.65;8.52;;;;;;;;;;5028844;28;20713;-79
2023/04/08 00:09:57;;;;;;;11.80;9.15;;;;;;;;;;5028387;28;20052;-78
2023/04/08 00:12:24;;;;;;;11.48;8.93;;;;;;;;;;5028562;28;20073;-80
2023/04/08 00:14:51;;;;;;;10.63;8.82;;;;;;;;;;5012428;28;20052;-79
2023/04/08 00:17:17;;;;;;;12.45;9.13;;;;;;;;;;5028978;28;20050;-78
2023/04/08 00:19:44;;;;;;;13.27;9.82;;;;;;;;;;5012202;28;20050;-79
2023/04/08 00:22:11;;;;;;;11.88;8.95;;;;;;;;;;5028522;28;20060;-79
2023/04/08 00:24:39;;;;;;;13.43;9.20;;;;;;;;;;5028549;28;20046;-79
2023/04/08 00:27:06;;;;;;;11.73;9.05;;;;;;;;;;5012223;28;20058;-81
2023/04/08 00:29:33;;;;;;;12.43;9.10;;;;;;;;;;5011857;28;20054;-80
2023/04/08 00:31:59;;;;;;;11.63;9.40;;;;;;;;;;5011677;28;20137;-78
2023/04/08 00:34:26;;;;;;;12.35;9.02;;;;;;;;;;5028393;28;20060;-78
2023/04/08 00:36:53;;;;;;;12.75;10.13;;;;;;;;;;5028196;28;20046;-78
2023/04/08 00:39:19;;;;;;;10.63;9.05;;;;;;;;;;5011852;28;20412;-78
2023/04/08 00:41:46;;;;;;;12.48;9.23;;;;;;;;;;5011567;28;20058;-78
2023/04/08 00:44:13;;;;;;;11.80;9.57;;;;;;;;;;5011749;28;20049;-79
2023/04/08 00:46:40;;;;;;;12.27;9.65;;;;;;;;;;5028029;28;20056;-79
2023/04/08 00:49:07;;;;;;;13.82;10.27;;;;;;;;;;5011822;28;20046;-78
2023/04/08 00:51:36;;;;;;;13.07;10.27;;;;;;;;;;4994981;28;20137;-78
2023/04/08 00:54:04;;;;;;;10.90;8.63;;;;;;;;;;5011967;28;20548;-78
2023/04/08 00:56:31;;;;;;;13.68;10.27;;;;;;;;;;5028070;28;20072;-78
2023/04/08 00:58:59;;;;;;;11.05;9.18;;;;;;;;;;5028143;28;20058;-78
2023/04/08 01:01:46;;;;;;;14.23;10.57;;;;;;;;;;5027755;28;20069;-79
2023/04/08 01:04:39;;;;;;;11.65;8.95;;;;;;;;;;5027448;28;20049;-78
2023/04/08 01:07:18;;;;;;;12.60;10.13;;;;;;;;;;5027715;28;20064;-78
2023/04/08 01:09:47;;;;;;;11.75;10.05;;;;;;;;;;5027628;28;20053;-79
2023/04/08 01:12:20;;;;;;;14.25;10.00;;;;;;;;;;5011078;28;20053;-78
2023/04/08 01:14:46;;;;;;;12.55;10.05;;;;;;;;;;5011245;28;20053;-78
2023/04/08 01:17:13;;;;;;;13.95;10.27;;;;;;;;;;4995083;28;20050;-79
2023/04/08 01:19:41;;;;;;;14.77;10.65;;;;;;;;;;4995052;28;20049;-78
2023/04/08 01:22:22;;;;;;;13.40;10.48;;;;;;;;;;4994547;28;20056;-78
2023/04/08 01:24:49;;;;;;;14.98;10.60;;;;;;;;;;5026963;28;20045;-79
2023/04/08 01:27:16;;;;;;;12.80;10.70;;;;;;;;;;5010996;28;20544;-78
2023/04/08 01:29:43;;;;;;;12.55;10.20;;;;;;;;;;4994607;28;20060;-79
2023/04/08 01:32:09;;;;;;;14.23;10.50;;;;;;;;;;4994702;28;20056;-79
2023/04/08 01:34:36;;;;;;;12.10;9.73;;;;;;;;;;4994945;28;20061;-79
2023/04/08 01:37:03;;;;;;;13.15;10.40;;;;;;;;;;5027138;28;20054;-79
2023/04/08 01:39:30;;;;;;;14.70;10.68;;;;;;;;;;4994513;28;20050;-79
2023/04/08 01:41:58;;;;;;;12.88;10.68;;;;;;;;;;4994489;28;20057;-79
2023/04/08 01:44:25;;;;;;;12.07;9.93;;;;;;;;;;5026499;28;20050;-79
2023/04/08 01:46:52;;;;;;;14.60;10.77;;;;;;;;;;5027134;28;20050;-80
2023/04/08 01:49:19;;;;;;;13.05;10.52;;;;;;;;;;4994787;28;20124;-79
2023/04/08 01:51:46;;;;;;;12.48;10.80;;;;;;;;;;5026488;28;20600;-78
2023/04/08 01:54:12;;;;;;;12.32;10.35;;;;;;;;;;5010697;28;20049;-79
2023/04/08 01:56:40;;;;;;;13.23;10.60;;;;;;;;;;4994541;28;20050;-78
2023/04/08 01:59:10;;;;;;;14.25;11.43;;;;;;;;;;5010601;28;20054;-79
2023/04/08 02:01:36;;;;;;;14.38;11.00;;;;;;;;;;5027026;28;20089;-78
2023/04/08 02:04:03;;;;;;;14.82;11.35;;;;;;;;;;4994213;28;20079;-78
2023/04/08 02:06:31;;;;;;;13.75;11.25;;;;;;;;;;5010716;28;20145;-79
2023/04/08 02:08:58;;;;;;;12.30;9.80;;;;;;;;;;5011004;28;20050;-78
2023/04/08 02:11:25;;;;;;;11.35;9.77;;;;;;;;;;5010263;28;20092;-78
2023/04/08 02:13:52;;;;;;;12.57;9.90;;;;;;;;;;5010621;28;20054;-78
2023/04/08 02:16:30;;;;;;;14.27;10.38;;;;;;;;;;5026851;28;20053;-79
2023/04/08 02:19:05;;;;;;;11.98;10.10;;;;;;;;;;5010896;28;20054;-78
2023/04/08 02:21:43;;;;;;;15.05;9.48;;;;;;;;;;4994473;28;20054;-79
2023/04/08 02:24:10;;;;;;;11.43;9.45;;;;;;;;;;5010553;28;20050;-79
2023/04/08 02:26:36;;;;;;;12.38;10.13;;;;;;;;;;5026276;28;20486;-78
2023/04/08 02:29:03;;;;;;;12.57;10.02;;;;;;;;;;5010102;28;20056;-79
2023/04/08 02:31:30;;;;;;;14.13;11.25;;;;;;;;;;5009669;28;20049;-78
2023/04/08 02:33:57;;;;;;;15.15;10.93;;;;;;;;;;5009832;28;20049;-79
2023/04/08 02:36:24;;;;;;;11.80;10.38;;;;;;;;;;4993773;28;20049;-79
2023/04/08 02:38:51;;;;;;;14.07;11.07;;;;;;;;;;4993740;28;20057;-79
2023/04/08 02:41:18;;;;;;;17.35;11.57;;;;;;;;;;4993085;28;20133;-78
2023/04/08 02:43:46;;;;;;;19.38;13.55;;;;;;;;;;5009799;28;20502;-78
2023/04/08 02:46:13;;;;;;;17.80;12.85;;;;;;;;;;5009368;28;20490;-78
2023/04/08 02:48:40;;;;;;;16.33;11.55;;;;;;;;;;5009639;28;20553;-78
2023/04/08 02:51:07;;;;;;;16.90;11.43;;;;;;;;;;5009492;28;20424;-78
2023/04/08 02:53:34;;;;;;;15.52;12.35;;;;;;;;;;5025739;28;20049;-78
2023/04/08 02:56:00;;;;;;;16.98;12.65;;;;;;;;;;5012937;28;20494;-78
2023/04/08 02:58:27;;;;;;;15.02;11.63;;;;;;;;;;5012934;28;20054;-78
2023/04/08 03:00:54;;;;;;;17.23;12.00;;;;;;;;;;5012977;28;20571;-78
2023/04/08 03:03:26;;;;;;;14.80;11.48;;;;;;;;;;4996553;28;20144;-78
2023/04/08 03:05:56;;;;;;;16.77;11.90;;;;;;;;;;5014031;28;20050;-77
2023/04/08 03:08:23;;;;;;;17.17;12.13;;;;;;;;;;5013141;28;20054;-78
2023/04/08 03:10:50;;;;;;;15.13;12.55;;;;;;;;;;4996723;28;20145;-78
2023/04/08 03:13:17;;;;;;;17.10;11.88;;;;;;;;;;5012967;28;20053;-77
2023/04/08 03:15:43;;;;;;;16.77;12.70;;;;;;;;;;4996855;28;20362;-77
2023/04/08 03:18:10;;;;;;;17.85;12.13;;;;;;;;;;5013322;28;20058;-78
2023/04/08 03:20:37;;;;;;;15.23;11.55;;;;;;;;;;4996607;28;20421;-78
2023/04/08 03:23:04;;;;;;;16.38;11.20;;;;;;;;;;5012880;28;20054;-77
2023/04/08 03:25:31;;;;;;;16.13;11.68;;;;;;;;;;4996488;28;20077;-78
2023/04/08 03:27:57;;;;;;;17.05;12.18;;;;;;;;;;4996402;28;20081;-77
2023/04/08 03:30:25;;;;;;;18.50;12.43;;;;;;;;;;4996535;28;20078;-77
2023/04/08 03:32:52;;;;;;;18.20;12.82;;;;;;;;;;5012505;28;20056;-78
2023/04/08 03:35:19;;;;;;;20.83;12.85;;;;;;;;;;4996241;28;20045;-79
2023/04/08 03:37:45;;;;;;;17.27;11.93;;;;;;;;;;5012565;28;20607;-78
2023/04/08 03:40:12;;;;;;;17.40;12.48;;;;;;;;;;4995907;28;20140;-78
2023/04/08 03:42:39;;;;;;;18.70;12.27;;;;;;;;;;4996299;28;20060;-78
2023/04/08 03:45:06;;;;;;;22.02;12.68;;;;;;;;;;4996225;28;20050;-78
2023/04/08 03:47:33;;;;;;;20.70;13.45;;;;;;;;;;5012469;28;20053;-78
2023/04/08 03:50:00;;;;;;;18.83;13.05;;;;;;;;;;4996031;28;20054;-77
2023/04/08 03:52:27;;;;;;;22.40;13.93;;;;;;;;;;4995836;28;20568;-78
2023/04/08 03:54:53;;;;;;;23.58;14.07;;;;;;;;;;4996193;28;20426;-78
2023/04/08 03:57:20;;;;;;;24.50;14.88;;;;;;;;;;4996198;28;20057;-78
2023/04/08 03:59:47;;;;;;;20.70;13.20;;;;;;;;;;4995887;28;20050;-78
2023/04/08 04:02:14;;;;;;;21.38;13.55;;;;;;;;;;5011940;28;20050;-78
2023/04/08 04:04:41;;;;;;;21.25;14.05;;;;;;;;;;5012427;28;20057;-78
2023/04/08 04:07:07;;;;;;;27.55;15.43;;;;;;;;;;5011374;28;20124;-78
2023/04/08 04:09:34;;;;;;;22.70;13.48;;;;;;;;;;4995508;28;20490;-78
2023/04/08 04:12:01;;;;;;;26.88;15.45;;;;;;;;;;5011981;28;20093;-77
2023/04/08 04:14:27;;;;;;;22.08;13.77;;;;;;;;;;4995843;28;20061;-78
2023/04/08 04:16:54;;;;;;;24.45;14.18;;;;;;;;;;4995673;28;20136;-78
2023/04/08 04:19:21;;;;;;;23.30;13.75;;;;;;;;;;5011738;28;20148;-78
2023/04/08 04:21:48;;;;;;;23.45;13.88;;;;;;;;;;4995251;28;20050;-78
2023/04/08 04:24:14;;;;;;;24.77;15.02;;;;;;;;;;4995404;28;20061;-77
2023/04/08 04:26:41;;;;;;;22.13;14.55;;;;;;;;;;5028105;28;20120;-77
2023/04/08 04:29:08;;;;;;;25.08;14.32;;;;;;;;;;5011725;28;20050;-77
2023/04/08 04:31:35;;;;;;;22.65;13.55;;;;;;;;;;5012511;28;20077;-78
2023/04/08 04:34:01;;;;;;;28.45;15.20;;;;;;;;;;4995247;28;20061;-79
2023/04/08 04:36:28;;;;;;;23.60;14.18;;;;;;;;;;5011500;28;20081;-77
2023/04/08 04:38:55;;;;;;;24.02;14.20;;;;;;;;;;4996928;28;20049;-78
2023/04/08 04:41:22;;;;;;;26.08;16.13;;;;;;;;;;5012739;28;20053;-79
2023/04/08 04:43:49;;;;;;;28.67;16.27;;;;;;;;;;4997524;28;20457;-78
2023/04/08 04:46:16;;;;;;;29.48;17.23;;;;;;;;;;5012052;28;20054;-79
2023/04/08 04:48:43;;;;;;;31.83;17.00;;;;;;;;;;5027965;28;20052;-78
2023/04/08 04:51:09;;;;;;;31.48;17.58;;;;;;;;;;5010956;28;20066;-78
2023/04/08 04:53:36;;;;;;;30.35;17.15;;;;;;;;;;4995254;28;20049;-79
2023/04/08 04:56:03;;;;;;;31.00;17.15;;;;;;;;;;5011140;28;20042;-78
2023/04/08 04:58:29;;;;;;;30.58;17.23;;;;;;;;;;5011142;28;20132;-78
2023/04/08 05:00:56;;;;;;;31.75;17.23;;;;;;;;;;4994665;28;20076;-79
2023/04/08 05:03:23;;;;;;;25.65;16.40;;;;;;;;;;5010722;28;20054;-78
2023/04/08 05:05:53;;;;;;;31.30;16.65;;;;;;;;;;4994673;28;20556;-78
2023/04/08 05:08:20;;;;;;;27.98;16.23;;;;;;;;;;5027232;28;20073;-78
2023/04/08 05:10:49;;;;;;;24.55;15.50;;;;;;;;;;5010882;28;20054;-78
2023/04/08 05:13:17;;;;;;;27.15;17.95;;;;;;;;;;5010924;28;20268;-78
2023/04/08 05:15:46;;;;;;;26.77;15.75;;;;;;;;;;5027120;28;20052;-77
2023/04/08 05:18:13;;;;;;;32.13;17.23;;;;;;;;;;4995489;28;20060;-78
2023/04/08 05:20:40;;;;;;;28.50;16.73;;;;;;;;;;5010834;28;20444;-78
2023/04/08 05:23:07;;;;;;;27.38;16.55;;;;;;;;;;4994785;28;20425;-78
2023/04/08 05:25:34;;;;;;;27.42;16.85;;;;;;;;;;5010675;28;20391;-78
2023/04/08 05:28:01;;;;;;;29.98;16.63;;;;;;;;;;4994606;28;20084;-79
2023/04/08 05:30:28;;;;;;;26.88;15.32;;;;;;;;;;4994422;28;20062;-78
2023/04/08 05:32:55;;;;;;;27.88;15.90;;;;;;;;;;5010494;28;20102;-78
2023/04/08 05:35:25;;;;;;;23.83;15.63;;;;;;;;;;5010590;28;20046;-78
2023/04/08 05:37:52;;;;;;;24.95;15.38;;;;;;;;;;5010836;28;20049;-78
2023/04/08 05:40:19;;;;;;;23.40;15.20;;;;;;;;;;5010713;28;20054;-77
2023/04/08 05:42:46;;;;;;;24.25;15.10;;;;;;;;;;4994765;28;20057;-78
2023/04/08 05:45:12;;;;;;;23.58;14.23;;;;;;;;;;4994102;28;20053;-78
2023/04/08 05:47:39;;;;;;;27.45;15.75;;;;;;;;;;5010784;28;20423;-79
2023/04/08 05:50:06;;;;;;;26.50;14.75;;;;;;;;;;5010070;28;20149;-78
2023/04/08 05:52:33;;;;;;;23.50;14.95;;;;;;;;;;5010251;28;20049;-79
2023/04/08 05:55:00;;;;;;;23.17;14.50;;;;;;;;;;4994634;28;20054;-79
2023/04/08 05:57:27;;;;;;;26.15;15.68;;;;;;;;;;5010429;28;20050;-78
2023/04/08 05:59:53;;;;;;;22.63;15.00;;;;;;;;;;4993879;28;20057;-78
2023/04/08 06:02:20;;;;;;;24.08;15.00;;;;;;;;;;4994190;28;20426;-78
2023/04/08 06:04:47;;;;;;;23.20;15.07;;;;;;;;;;5010083;28;20050;-78
2023/04/08 06:07:14;;;;;;;24.50;16.20;;;;;;;;;;4994082;28;20093;-79
2023/04/08 06:09:41;;;;;;;24.13;15.55;;;;;;;;;;5010195;28;20058;-78
2023/04/08 06:12:10;;;;;;;23.50;14.43;;;;;;;;;;5009953;28;20064;-78
2023/04/08 06:14:37;;;;;;;21.75;14.02;;;;;;;;;;4994002;28;20056;-78
2023/04/08 06:17:03;;;;;;;27.73;18.25;;;;;;;;;;4993994;28;20128;-78
2023/04/08 06:19:30;;;;;;;21.40;14.95;;;;;;;;;;4994093;28;20045;-78
2023/04/08 06:21:57;;;;;;;23.63;15.25;;;;;;;;;;5026054;28;20053;-78
2023/04/08 06:24:26;;;;;;;21.08;15.05;;;;;;;;;;5010079;28;20456;-79
2023/04/08 06:26:53;;;;;;;22.75;15.35;;;;;;;;;;5026016;28;20046;-78
2023/04/08 06:29:20;;;;;;;21.83;13.40;;;;;;;;;;5010567;28;20082;-78
2023/04/08 06:31:47;;;;;;;23.75;14.80;;;;;;;;;;4997271;28;20060;-78
2023/04/08 06:34:15;;;;;;;21.08;14.50;;;;;;;;;;5013758;28;20050;-79
2023/04/08 06:36:41;;;;;;;22.95;15.13;;;;;;;;;;5030100;28;20042;-78
2023/04/08 06:39:09;;;;;;;21.38;15.98;;;;;;;;;;5013656;28;20166;-78
2023/04/08 06:41:36;;;;;;;18.85;13.77;;;;;;;;;;5013264;28;20145;-78
2023/04/08 06:44:02;;;;;;;19.75;13.60;;;;;;;;;;5013731;28;20054;-78
2023/04/08 06:46:29;;;;;;;19.88;13.57;;;;;;;;;;5013771;28;20050;-79
2023/04/08 06:48:56;;;;;;;15.68;11.45;;;;;;;;;;5030093;28;20062;-78
2023/04/08 06:51:23;;;;;;;20.65;13.35;;;;;;;;;;4997157;28;20054;-79
2023/04/08 06:53:49;;;;;;;19.15;13.38;;;;;;;;;;5013483;28;20491;-79
2023/04/08 06:56:16;;;;;;;20.15;14.00;;;;;;;;;;5013399;28;20050;-78
2023/04/08 06:58:43;;;;;;;15.23;11.57;;;;;;;;;;4997517;28;20530;-79
2023/04/08 07:01:10;;;;;;;15.02;11.43;;;;;;;;;;5013626;28;20076;-78
2023/04/08 07:03:36;;;;;;;15.98;11.88;;;;;;;;;;5013041;28;20049;-78
2023/04/08 07:06:04;;;;;;;15.90;11.70;;;;;;;;;;5013142;28;20473;-78
2023/04/08 07:08:30;;;;;;;15.23;11.50;;;;;;;;;;4996912;28;20049;-78
2023/04/08 07:10:57;;;;;;;18.20;11.85;;;;;;;;;;5012718;28;20056;-78
2023/04/08 07:13:24;;;;;;;16.15;11.73;;;;;;;;;;4996826;28;20568;-78
2023/04/08 07:15:51;;;;;;;17.42;12.63;;;;;;;;;;4996908;28;20050;-78
2023/04/08 07:18:18;;;;;;;15.65;11.95;;;;;;;;;;4996987;28;20050;-78
2023/04/08 07:20:45;;;;;;;15.15;11.88;;;;;;;;;;5012946;28;20129;-78
2023/04/08 07:23:12;;;;;;;14.43;11.43;;;;;;;;;;5012754;28;20394;-79
2023/04/08 07:25:38;;;;;;;14.43;11.38;;;;;;;;;;5012541;28;20145;-78
2023/04/08 07:28:05;;;;;;;15.75;11.65;;;;;;;;;;4996728;28;20586;-78
2023/04/08 07:30:32;;;;;;;14.05;10.50;;;;;;;;;;4996474;28;20049;-78
2023/04/08 07:32:59;;;;;;;13.80;10.35;;;;;;;;;;4996502;28;20073;-78
2023/04/08 07:35:27;;;;;;;13.63;10.60;;;;;;;;;;5012627;28;20145;-78
2023/04/08 07:37:54;;;;;;;14.43;10.60;;;;;;;;;;5012760;28;20496;-79
2023/04/08 07:40:21;;;;;;;14.13;9.32;;;;;;;;;;5028263;28;20159;-78
2023/04/08 07:42:48;;;;;;;14.73;10.25;;;;;;;;;;5012001;28;20520;-78
2023/04/08 07:45:14;;;;;;;13.63;10.65;;;;;;;;;;5028954;28;20053;-78
2023/04/08 07:47:41;;;;;;;15.02;11.73;;;;;;;;;;5012403;28;20060;-78
2023/04/08 07:50:08;;;;;;;13.40;11.15;;;;;;;;;;5012176;28;20053;-79
2023/04/08 07:52:35;;;;;;;14.98;12.63;;;;;;;;;;4996113;28;20085;-78
2023/04/08 07:55:02;;;;;;;16.00;12.20;;;;;;;;;;4996275;28;20068;-80
2023/04/08 07:57:29;;;;;;;15.40;12.02;;;;;;;;;;5012453;28;20060;-78
2023/04/08 07:59:56;;;;;;;15.60;12.45;;;;;;;;;;5012170;28;20509;-78
2023/04/08 08:02:23;;;;;;;13.45;11.10;;;;;;;;;;4995724;28;20070;-79
2023/04/08 08:04:50;;;;;;;12.95;10.68;;;;;;;;;;4995393;28;20068;-78
2023/04/08 08:07:17;;;;;;;13.93;11.07;;;;;;;;;;5012269;28;20386;-78
2023/04/08 08:09:43;;;;;;;14.05;11.40;;;;;;;;;;5012089;28;20084;-78
2023/04/08 08:12:10;;;;;;;12.98;10.30;;;;;;;;;;5011561;28;20056;-78
2023/04/08 08:14:37;;;;;;;11.93;10.02;;;;;;;;;;4995968;28;20417;-78
2023/04/08 08:17:04;;;;;;;12.30;10.35;;;;;;;;;;5028160;28;20054;-78
2023/04/08 08:19:30;;;;;;;13.05;10.95;;;;;;;;;;5012268;28;20105;-79
2023/04/08 08:21:57;;;;;;;13.80;10.18;;;;;;;;;;5011732;28;20056;-79
2023/04/08 08:24:24;;;;;;;12.50;10.65;;;;;;;;;;4995434;28;20080;-78
2023/04/08 08:26:51;;;;;;;13.75;10.52;;;;;;;;;;4995774;28;20103;-78
2023/04/08 08:29:18;;;;;;;11.23;9.95;;;;;;;;;;4995654;28;20413;-78
2023/04/08 08:31:48;;;;;;;16.42;10.00;;;;;;;;;;5027650;28;20065;-79
2023/04/08 08:34:15;;;;;;;11.23;9.27;;;;;;;;;;5011464;28;20053;-78
2023/04/08 08:36:41;;;;;;;10.70;8.60;;;;;;;;;;5027685;28;20050;-78
2023/04/08 08:39:08;;;;;;;12.77;10.68;;;;;;;;;;5011717;28;20064;-78
2023/04/08 08:41:36;;;;;;;12.13;10.30;;;;;;;;;;4994829;28;20046;-79
2023/04/08 08:44:06;;;;;;;12.38;10.75;;;;;;;;;;4995278;28;20085;-79
2023/04/08 08:46:33;;;;;;;11.40;10.18;;;;;;;;;;4995079;28;20386;-78
2023/04/08 08:49:00;;;;;;;14.48;10.43;;;;;;;;;;5011250;28;20115;-78
2023/04/08 08:51:27;;;;;;;13.20;10.18;;;;;;;;;;5010996;28;20046;-78
2023/04/08 08:53:54;;;;;;;11.88;9.85;;;;;;;;;;4994809;28;20061;-79
2023/04/08 08:56:21;;;;;;;14.25;10.95;;;;;;;;;;5011238;28;20088;-78
2023/04/08 08:58:48;;;;;;;14.40;10.30;;;;;;;;;;4994886;28;20141;-78
2023/04/08 09:01:34;;;;;;;13.07;10.45;;;;;;;;;;5011059;28;20141;-78
2023/04/08 09:04:10;;;;;;;11.93;10.57;;;;;;;;;;5027333;28;20104;-78
2023/04/08 09:06:37;;;;;;;14.02;10.55;;;;;;;;;;5027529;28;20045;-78
2023/04/08 09:09:10;;;;;;;12.65;9.95;;;;;;;;;;4995072;28;20141;-78
2023/04/08 09:11:41;;;;;;;12.52;9.75;;;;;;;;;;4995539;28;20054;-78
2023/04/08 09:14:24;;;;;;;11.68;10.23;;;;;;;;;;5027132;28;20057;-78
2023/04/08 09:16:51;;;;;;;12.85;10.77;;;;;;;;;;5033167;28;20038;-80
2023/04/08 09:19:18;;;;;;;13.18;11.32;;;;;;;;;;5021540;28;20050;-79
2023/04/08 09:21:46;;;;;;;11.63;9.85;;;;;;;;;;5010894;28;20049;-79
2023/04/08 09:24:29;;;;;;;13.27;10.18;;;;;;;;;;5011141;28;20060;-79
2023/04/08 09:26:56;;;;;;;12.77;10.75;;;;;;;;;;4995020;28;20564;-79
2023/04/08 09:29:25;;;;;;;12.85;10.13;;;;;;;;;;5014309;28;20117;-79
2023/04/08 09:31:55;;;;;;;14.23;10.45;;;;;;;;;;5045760;28;20056;-80
2023/04/08 09:34:22;;;;;;;12.40;9.77;;;;;;;;;;5050402;28;20034;-80
2023/04/08 09:36:50;;;;;;;12.18;10.68;;;;;;;;;;5032931;28;20057;-78
2023/04/08 09:39:17;;;;;;;11.35;9.65;;;;;;;;;;5043008;28;20069;-79
2023/04/08 09:41:44;;;;;;;13.18;10.60;;;;;;;;;;5017583;28;20498;-78
2023/04/08 09:44:11;;;;;;;12.18;10.27;;;;;;;;;;5011880;28;20069;-79
2023/04/08 09:46:50;;;;;;;15.13;10.85;;;;;;;;;;4995231;28;20052;-79
2023/04/08 09:49:49;;;;;;;12.65;9.77;;;;;;;;;;5028317;28;20485;-79
2023/04/08 09:52:54;;;;;;;11.57;10.38;;;;;;;;;;5027836;28;20054;-78
2023/04/08 09:55:22;;;;;;;12.77;10.20;;;;;;;;;;5011248;28;20385;-78
2023/04/08 09:57:58;;;;;;;12.57;10.20;;;;;;;;;;5012371;28;20056;-80
2023/04/08 10:00:30;;;;;;;11.70;9.70;;;;;;;;;;5027506;28;20054;-79
2023/04/08 10:03:10;;;;;;;11.05;9.48;;;;;;;;;;5034104;28;20053;-79
2023/04/08 10:05:39;;;;;;;11.23;9.05;;;;;;;;;;5028043;28;20056;-79
2023/04/08 10:08:06;;;;;;;13.82;9.43;;;;;;;;;;5011329;28;20449;-79
2023/04/08 10:10:34;;;;;;;9.90;8.90;;;;;;;;;;5010800;28;20136;-79
2023/04/08 10:13:02;;;;;;;11.20;10.00;;;;;;;;;;5026751;28;20050;-80
2023/04/08 10:15:36;;;;;;;12.65;10.02;;;;;;;;;;5011156;28;20525;-79
2023/04/08 10:18:05;;;;;;;11.63;10.43;;;;;;;;;;5026924;28;20140;-79
2023/04/08 10:20:35;;;;;;;10.23;9.15;;;;;;;;;;5011793;28;20116;-79
2023/04/08 10:23:03;;;;;;;11.43;9.50;;;;;;;;;;5027202;28;20105;-78
2023/04/08 10:25:34;;;;;;;12.05;9.52;;;;;;;;;;5011585;28;20070;-78
2023/04/08 10:28:21;;;;;;;13.32;9.88;;;;;;;;;;5011468;28;20108;-79
2023/04/08 10:30:49;;;;;;;10.77;9.48;;;;;;;;;;5004631;28;20049;-79
2023/04/08 10:33:19;;;;;;;10.43;9.32;;;;;;;;;;5027893;28;20127;-78
2023/04/08 10:36:08;;;;;;;10.90;9.18;;;;;;;;;;5011646;28;20064;-79
2023/04/08 10:38:38;;;;;;;13.50;10.20;;;;;;;;;;5027745;28;20050;-79
2023/04/08 10:41:05;;;;;;;10.27;9.18;;;;;;;;;;5027162;28;20050;-79
2023/04/08 10:43:33;;;;;;;14.63;10.20;;;;;;;;;;5027804;28;20129;-79
2023/04/08 10:46:00;;;;;;;11.38;9.32;;;;;;;;;;4995062;28;20133;-79
2023/04/08 10:48:30;;;;;;;10.77;8.90;;;;;;;;;;5027380;28;20169;-79
2023/04/08 10:51:01;;;;;;;11.82;10.20;;;;;;;;;;5026957;28;20064;-78
2023/04/08 10:53:29;;;;;;;15.80;10.32;;;;;;;;;;5010683;28;20569;-79
2023/04/08 10:56:13;;;;;;;13.27;9.48;;;;;;;;;;5027159;28;20395;-79
2023/04/08 10:58:51;;;;;;;13.27;10.55;;;;;;;;;;5010977;28;20132;-79
2023/04/08 11:01:18;;;;;;;11.80;10.55;;;;;;;;;;5026718;28;20054;-79
2023/04/08 11:03:45;;;;;;;14.40;10.85;;;;;;;;;;5026496;28;20521;-78
2023/04/08 11:06:12;;;;;;;11.30;10.13;;;;;;;;;;5010602;28;20462;-79
2023/04/08 11:08:40;;;;;;;13.30;10.65;;;;;;;;;;5010586;28;20050;-78
2023/04/08 11:11:10;;;;;;;11.27;9.68;;;;;;;;;;5026563;28;20057;-79
2023/04/08 11:13:41;;;;;;;13.25;9.52;;;;;;;;;;5010614;28;20137;-79
2023/04/08 11:16:17;;;;;;;11.43;9.52;;;;;;;;;;5013035;28;20053;-78
2023/04/08 11:18:44;;;;;;;10.55;9.30;;;;;;;;;;5014324;28;20088;-79
2023/04/08 11:21:11;;;;;;;11.43;9.32;;;;;;;;;;5013886;28;20492;-79
2023/04/08 11:23:38;;;;;;;12.38;9.55;;;;;;;;;;5013864;28;20050;-78
2023/04/08 11:26:05;;;;;;;10.93;9.63;;;;;;;;;;5014737;28;20441;-79
2023/04/08 11:28:32;;;;;;;13.70;9.75;;;;;;;;;;5031032;28;20074;-77
2023/04/08 11:30:59;;;;;;;14.32;10.30;;;;;;;;;;5029990;28;20050;-78
2023/04/08 11:33:26;;;;;;;10.73;8.57;;;;;;;;;;5013227;28;20465;-78
2023/04/08 11:35:52;;;;;;;13.13;8.82;;;;;;;;;;5029344;28;20431;-78
2023/04/08 11:38:23;;;;;;;8.82;7.88;;;;;;;;;;5012808;28;20050;-78
2023/04/08 11:40:54;;;;;;;9.43;8.13;;;;;;;;;;5028434;28;20053;-78
2023/04/08 11:43:22;;;;;;;11.45;7.78;;;;;;;;;;5028517;28;20054;-78
2023/04/08 11:45:49;;;;;;;12.32;8.40;;;;;;;;;;5012265;28;20065;-78
2023/04/08 11:48:16;;;;;;;11.07;8.07;;;;;;;;;;5012459;28;20603;-78
2023/04/08 11:50:43;;;;;;;9.35;8.35;;;;;;;;;;5012315;28;20398;-78
2023/04/08 11:53:20;;;;;;;9.93;7.65;;;;;;;;;;5012386;28;20049;-78
2023/04/08 11:55:47;;;;;;;11.77;8.07;;;;;;;;;;5028732;28;20064;-78
2023/04/08 11:58:14;;;;;;;9.68;7.22;;;;;;;;;;4996114;28;20556;-79
2023/04/08 12:00:42;;;;;;;9.52;7.85;;;;;;;;;;5028491;28;20136;-78
2023/04/08 12:03:09;;;;;;;8.50;7.57;;;;;;;;;;5028709;28;20053;-78
2023/04/08 12:05:36;;;;;;;10.38;7.65;;;;;;;;;;5028819;28;20085;-77
2023/04/08 12:08:03;;;;;;;9.68;7.78;;;;;;;;;;5028469;28;20490;-77
2023/04/08 12:10:30;;;;;;;10.50;8.35;;;;;;;;;;5011896;28;20506;-78
2023/04/08 12:12:57;;;;;;;8.50;7.30;;;;;;;;;;4995806;28;20145;-77
2023/04/08 12:15:23;;;;;;;8.52;7.63;;;;;;;;;;5028491;28;20056;-77
2023/04/08 12:17:50;;;;;;;9.32;7.72;;;;;;;;;;5012082;28;20445;-78
2023/04/08 12:20:17;;;;;;;10.30;7.13;;;;;;;;;;5011639;28;20046;-78
2023/04/08 12:22:44;;;;;;;8.57;7.43;;;;;;;;;;5011771;28;20056;-76
2023/04/08 12:25:11;;;;;;;8.75;7.72;;;;;;;;;;5027854;28;20081;-78
2023/04/08 12:27:37;;;;;;;11.13;7.78;;;;;;;;;;5027723;28;20359;-78
2023/04/08 12:30:04;;;;;;;8.65;7.63;;;;;;;;;;5027617;28;20049;-80
2023/04/08 12:32:32;;;;;;;12.25;7.70;;;;;;;;;;5027748;28;20145;-77
2023/04/08 12:34:59;;;;;;;13.35;8.40;;;;;;;;;;5028052;28;20053;-77
2023/04/08 12:37:26;;;;;;;10.02;7.30;;;;;;;;;;5027578;28;20134;-77
2023/04/08 12:39:53;;;;;;;9.43;7.60;;;;;;;;;;5011527;28;20413;-78
2023/04/08 12:42:21;;;;;;;10.73;8.43;;;;;;;;;;4995286;28;20050;-77
2023/04/08 12:44:48;;;;;;;9.85;7.82;;;;;;;;;;5011340;28;20050;-78
2023/04/08 12:47:15;;;;;;;8.65;7.75;;;;;;;;;;5011294;28;20129;-78
2023/04/08 12:49:42;;;;;;;13.27;8.50;;;;;;;;;;5011172;28;20130;-78
2023/04/08 12:52:16;;;;;;;11.07;7.88;;;;;;;;;;5026589;28;20053;-78
2023/04/08 12:54:43;;;;;;;9.68;7.55;;;;;;;;;;5027517;28;20410;-78
2023/04/08 12:57:10;;;;;;;10.02;7.95;;;;;;;;;;5011363;28;20064;-77
2023/04/08 12:59:38;;;;;;;8.07;7.07;;;;;;;;;;5010902;28;20104;-77
2023/04/08 13:02:06;;;;;;;10.75;7.50;;;;;;;;;;5010724;28;20050;-79
2023/04/08 13:04:33;;;;;;;9.40;7.78;;;;;;;;;;5010885;28;20084;-78
2023/04/08 13:07:00;;;;;;;9.45;8.00;;;;;;;;;;5026908;28;20425;-78
2023/04/08 13:09:28;;;;;;;8.50;7.60;;;;;;;;;;5010872;28;20522;-77
2023/04/08 13:11:55;;;;;;;9.35;8.25;;;;;;;;;;5010823;28;20053;-79
2023/04/08 13:14:22;;;;;;;10.00;8.15;;;;;;;;;;5010809;28;20136;-78
2023/04/08 13:16:48;;;;;;;9.73;8.40;;;;;;;;;;5010932;28;20085;-78
2023/04/08 13:19:15;;;;;;;11.25;8.10;;;;;;;;;;5010692;28;20046;-79
2023/04/08 13:21:42;;;;;;;10.10;7.57;;;;;;;;;;5027302;28;20054;-78
2023/04/08 13:24:11;;;;;;;8.70;7.80;;;;;;;;;;5026967;28;20058;-79
2023/04/08 13:26:38;;;;;;;10.00;8.38;;;;;;;;;;5010654;28;20057;-78
2023/04/08 13:29:05;;;;;;;9.20;7.55;;;;;;;;;;5010514;28;20140;-78
2023/04/08 13:31:32;;;;;;;9.02;7.88;;;;;;;;;;5010420;28;20483;-78
2023/04/08 13:33:59;;;;;;;9.77;8.40;;;;;;;;;;4994515;28;20561;-78
2023/04/08 13:36:27;;;;;;;9.65;8.23;;;;;;;;;;5010428;28;20088;-79
2023/04/08 13:38:55;;;;;;;8.88;7.97;;;;;;;;;;5009647;28;20081;-78
2023/04/08 13:41:22;;;;;;;9.45;8.45;;;;;;;;;;5026616;28;20345;-79
2023/04/08 13:43:49;;;;;;;10.68;9.02;;;;;;;;;;5026732;28;20136;-78
2023/04/08 13:46:16;;;;;;;11.15;8.77;;;;;;;;;;5010304;28;20675;-77
2023/04/08 13:48:43;;;;;;;12.00;8.90;;;;;;;;;;5026327;28;20497;-78
2023/04/08 13:51:10;;;;;;;10.35;7.72;;;;;;;;;;5010030;28;20572;-78
2023/04/08 13:53:37;;;;;;;9.85;8.40;;;;;;;;;;5010261;28;20046;-78
2023/04/08 13:56:04;;;;;;;11.20;8.73;;;;;;;;;;5026616;28;20132;-79
2023/04/08 13:58:31;;;;;;;9.68;7.93;;;;;;;;;;5026610;28;20160;-78
2023/04/08 14:00:57;;;;;;;7.72;6.93;;;;;;;;;;5009787;28;20052;-78
2023/04/08 14:03:25;;;;;;;8.85;7.53;;;;;;;;;;5026238;28;20050;-80
2023/04/08 14:05:52;;;;;;;9.30;7.57;;;;;;;;;;5010101;28;20588;-78
2023/04/08 14:08:24;;;;;;;7.65;6.80;;;;;;;;;;5026056;28;20498;-78
2023/04/08 14:11:00;;;;;;;10.77;7.00;;;;;;;;;;5026221;28;20490;-79
2023/04/08 14:13:26;;;;;;;8.65;6.63;;;;;;;;;;5026132;28;20056;-79
2023/04/08 14:15:57;;;;;;;6.57;5.97;;;;;;;;;;5009950;28;20088;-78
2023/04/08 14:18:24;;;;;;;7.65;6.55;;;;;;;;;;5026275;28;20053;-78
2023/04/08 14:20:51;;;;;;;8.07;7.10;;;;;;;;;;5026182;28;20054;-79
2023/04/08 14:23:18;;;;;;;9.63;7.32;;;;;;;;;;5009885;28;20060;-78
2023/04/08 14:25:44;;;;;;;9.13;7.20;;;;;;;;;;5026173;28;20050;-78
2023/04/08 14:28:11;;;;;;;8.88;7.10;;;;;;;;;;5009871;28;20056;-78